Big Bear Station Historical Data
Daily Summary for May 22, 2019 Units:  English    Metric   Both
Next Day »
Daily Weekly Monthly Yearly Custom
  High: Low: Average:
Temperature: 43.5 °F 29.8 °F 34.2 °F
Dew Point: 34.5 °F 26.7 °F 30.6 °F
Humidity: 97% 62% 87%
Wind Speed: 5.8mph 0mph 2mph
Wind Gust: -999mph - -
Wind- - WSW
Pressure: 23.24 in 23.13 in -
Precipitation: 0.02 in    
Historical Graphs
 
 
Tabular Data for May 22, 2019
Time Temperature Dew Point Pressure Wind Wind Speed Wind Gust Humidity Rainfall Rate (Hourly)
00:03 32.4 °F 29.5 °F 23.18 in Calm   -999 mph 89% 0.00 in
00:18 32.4 °F 29.5 °F 23.18 in Calm   -999 mph 89% 0.00 in
00:33 32.5 °F 29.6 °F 23.17 in South 1.1 mph -999 mph 89% 0.00 in
00:48 32.9 °F 30.6 °F 23.17 in ENE 3.7 mph -999 mph 91% 0.00 in
01:03 33.1 °F 30.8 °F 23.17 in ENE 4.7 mph -999 mph 91% 0.00 in
01:21 33.1 °F 30.2 °F 23.17 in NW 5.8 mph -999 mph 89% 0.00 in
01:36 33.3 °F 30.1 °F 23.17 in WNW 5.3 mph -999 mph 88% 0.00 in
01:52 33.3 °F 29.9 °F 23.17 in NW 3.2 mph -999 mph 87% 0.00 in
02:08 32.9 °F 29.5 °F 23.16 in NNE 5.3 mph -999 mph 87% 0.00 in
02:25 32.2 °F 28.8 °F 23.16 in South 4.2 mph -999 mph 87% 0.00 in
02:41 32 °F 28.8 °F 23.16 in ENE 2.2 mph -999 mph 88% 0.00 in
02:56 31.5 °F 28.4 °F 23.15 in Calm   -999 mph 88% 0.00 in
03:11 31.1 °F 28 °F 23.15 in South 4.7 mph -999 mph 88% 0.00 in
03:26 30.7 °F 27.6 °F 23.14 in Calm   -999 mph 88% 0.00 in
03:42 30.4 °F 27.5 °F 23.14 in Calm   -999 mph 89% 0.00 in
03:57 30.2 °F 27.1 °F 23.14 in Calm   -999 mph 88% 0.00 in
04:12 30 °F 26.9 °F 23.13 in Calm   -999 mph 88% 0.00 in
04:27 29.8 °F 26.7 °F 23.13 in Calm   -999 mph 88% 0.00 in
04:42 30.4 °F 27.5 °F 23.13 in Calm   -999 mph 89% 0.00 in
04:58 30.7 °F 27.8 °F 23.13 in Calm   -999 mph 89% 0.00 in
05:13 31.1 °F 28 °F 23.13 in NW 1.1 mph -999 mph 88% 0.00 in
05:28 31.3 °F 28.2 °F 23.13 in Calm   -999 mph 88% 0.00 in
05:43 31.3 °F 28.2 °F 23.13 in Calm   -999 mph 88% 0.00 in
05:58 31.3 °F 28.2 °F 23.13 in NNE 1.1 mph -999 mph 88% 0.00 in
06:14 31.1 °F 27.7 °F 23.13 in NNE 2.2 mph -999 mph 87% 0.00 in
06:29 31.1 °F 28.2 °F 23.13 in West 2.2 mph -999 mph 89% 0.00 in
06:44 31.3 °F 28.7 °F 23.13 in Calm   -999 mph 90% 0.00 in
07:00 30.9 °F 28.3 °F 23.14 in Calm   -999 mph 90% 0.00 in
07:15 31.1 °F 28 °F 23.14 in SSW 3.7 mph -999 mph 88% 0.00 in
07:30 31.3 °F 28.2 °F 23.14 in Calm   -999 mph 88% 0.00 in
07:45 32 °F 28.8 °F 23.14 in Calm   -999 mph 88% 0.00 in
08:00 32.5 °F 28.8 °F 23.14 in NNW 2.2 mph -999 mph 86% 0.00 in
08:16 33.1 °F 29.4 °F 23.15 in Calm   -999 mph 86% 0.00 in
08:31 34 °F 29.7 °F 23.15 in NW 2.2 mph -999 mph 84% 0.00 in
08:46 34.2 °F 29.3 °F 23.14 in NW 4.7 mph -999 mph 82% 0.00 in
09:01 34.7 °F 29.2 °F 23.14 in NNE 2.7 mph -999 mph 80% 0.00 in
09:17 36 °F 30.7 °F 23.15 in NNW 4.2 mph -999 mph 81% 0.00 in
09:32 36.3 °F 29.5 °F 23.15 in ESE 4.2 mph -999 mph 76% 0.00 in
09:47 36 °F 30.4 °F 23.15 in NNE 3.7 mph -999 mph 80% 0.00 in
10:02 37.2 °F 30.3 °F 23.15 in Calm   -999 mph 76% 0.00 in
10:17 35.6 °F 31.5 °F 23.15 in North 4.7 mph -999 mph 85% 0.00 in
10:33 35.8 °F 31.7 °F 23.16 in NNW 5.3 mph -999 mph 85% 0.00 in
10:48 38.5 °F 32.6 °F 23.16 in NNW 5.8 mph -999 mph 79% 0.00 in
11:03 38.1 °F 30.5 °F 23.16 in Calm   -999 mph 74% 0.00 in
11:19 40.1 °F 30 °F 23.16 in WNW 2.7 mph -999 mph 67% 0.00 in
11:34 39.2 °F 28.4 °F 23.16 in NW 3.7 mph -999 mph 65% 0.00 in
11:49 39.4 °F 30.8 °F 23.16 in NNW 4.7 mph -999 mph 71% 0.00 in
12:04 38.8 °F 32.2 °F 23.16 in NNW 4.2 mph -999 mph 77% 0.00 in
12:20 41.4 °F 29.4 °F 23.16 in NW 5.3 mph -999 mph 62% 0.00 in
12:35 40.3 °F 31.6 °F 23.16 in WNW 4.7 mph -999 mph 71% 0.00 in
12:50 40.3 °F 30.2 °F 23.16 in NW 5.3 mph -999 mph 67% 0.00 in
13:06 43.5 °F 33.3 °F 23.15 in NW 4.7 mph -999 mph 67% 0.00 in
13:21 41 °F 30.5 °F 23.15 in NNW 3.7 mph -999 mph 66% 0.00 in
13:37 40.6 °F 32.6 °F 23.15 in NW 4.2 mph -999 mph 73% 0.00 in
13:52 40.3 °F 32 °F 23.15 in WNW 2.7 mph -999 mph 72% 0.00 in
14:07 40.3 °F 31.6 °F 23.15 in North 2.2 mph -999 mph 71% 0.00 in
14:22 39.2 °F 34.5 °F 23.16 in West 2.7 mph -999 mph 83% 0.00 in
14:37 38.1 °F 34.3 °F 23.16 in Calm   -999 mph 86% 0.00 in
14:53 38.7 °F 33.4 °F 23.16 in NNW 2.7 mph -999 mph 81% 0.00 in
15:08 37.9 °F 32.6 °F 23.16 in WNW 2.7 mph -999 mph 81% 0.00 in
15:23 36.9 °F 33.4 °F 23.16 in NW 4.2 mph -999 mph 87% 0.00 in
15:39 36 °F 33.4 °F 23.16 in WNW 2.7 mph -999 mph 90% 0.00 in
15:54 34.9 °F 32.5 °F 23.16 in NW 3.7 mph -999 mph 91% 0.00 in
16:09 33.8 °F 31.7 °F 23.16 in West 3.7 mph -999 mph 92% 0.00 in
16:25 35.6 °F 33.2 °F 23.17 in West 2.2 mph -999 mph 91% 0.00 in
16:40 35.6 °F 32.7 °F 23.16 in Calm   -999 mph 89% 0.00 in
16:56 34.5 °F 31.6 °F 23.16 in NNW 1.1 mph -999 mph 89% 0.00 in
17:11 34 °F 31.9 °F 23.17 in Calm   -999 mph 92% 0.00 in
17:26 33.8 °F 31.7 °F 23.17 in Calm   -999 mph 92% 0.00 in
17:41 34 °F 31.7 °F 23.17 in Calm   -999 mph 91% 0.00 in
17:56 33.4 °F 31.6 °F 23.17 in Calm   -999 mph 93% 0.00 in
18:12 32.7 °F 31.2 °F 23.18 in Calm   -999 mph 94% 0.00 in
18:27 33.4 °F 31.9 °F 23.18 in Calm   -999 mph 94% 0.00 in
18:42 33.4 °F 31.6 °F 23.18 in Calm   -999 mph 93% 0.00 in
18:57 33.1 °F 31.6 °F 23.18 in NNW 2.7 mph -999 mph 94% 0.00 in
19:13 32.7 °F 31.4 °F 23.19 in Calm   -999 mph 95% 0.00 in
19:28 32.9 °F 31.6 °F 23.19 in Calm   -999 mph 95% 0.00 in
19:43 32.7 °F 31.4 °F 23.20 in NNE 1.7 mph -999 mph 95% 0.00 in
19:59 32.5 °F 31.5 °F 23.20 in NNW 4.2 mph -999 mph 96% 0.00 in
20:14 32.7 °F 31.7 °F 23.20 in Calm   -999 mph 96% 0.00 in
20:30 32.5 °F 31.7 °F 23.21 in NNW 3.2 mph -999 mph 97% 0.00 in
20:45 32.7 °F 31.9 °F 23.21 in Calm   -999 mph 97% 0.00 in
21:00 33.1 °F 32.3 °F 23.22 in NW 2.7 mph -999 mph 97% 0.00 in
21:15 33.6 °F 32.8 °F 23.22 in NW 5.3 mph -999 mph 97% 0.00 in
21:31 33.4 °F 32.4 °F 23.22 in WNW 4.2 mph -999 mph 96% 0.00 in
21:46 33.4 °F 32.4 °F 23.23 in Calm   -999 mph 96% 0.00 in
22:01 33.3 °F 32.3 °F 23.23 in NW 3.2 mph -999 mph 96% 0.00 in
22:16 33.4 °F 32.4 °F 23.23 in Calm   -999 mph 96% 0.00 in
22:32 33.1 °F 32.1 °F 23.23 in Calm   -999 mph 96% 0.00 in
22:47 32.7 °F 31.7 °F 23.23 in Calm   -999 mph 96% 0.00 in
23:02 32.2 °F 31.2 °F 23.23 in Calm   -999 mph 96% 0.00 in
23:18 32.2 °F 31.2 °F 23.23 in Calm   -999 mph 96% 0.00 in
23:33 32.4 °F 31.4 °F 23.23 in Calm   -999 mph 96% 0.00 in
23:48 32.4 °F 31.4 °F 23.24 in Calm   -999 mph 96% 0.00 in
Big Bear CA Weather